SALINA,KS (SLN) ASOS reports gust of 51 knots (58.7 mph) from SSE @ 1833Z -- KSLN 291853Z 17020G35KT 10SM SCT110 22/17 A2996 RMK AO2 PK WND 15051/1833